sensor_id;sensor_type;location;lat;lon;timestamp;temperature;humidity
11934;DHT22;6026;48.784;9.198;2024-03-25T00:01:37;5.00;99.90
11934;DHT22;6026;48.784;9.198;2024-03-25T00:04:03;5.00;99.90
11934;DHT22;6026;48.784;9.198;2024-03-25T00:06:29;5.00;99.90
11934;DHT22;6026;48.784;9.198;2024-03-25T00:09:01;5.10;99.90
11934;DHT22;6026;48.784;9.198;2024-03-25T00:11:27;5.00;99.90
11934;DHT22;6026;48.784;9.198;2024-03-25T00:13:53;5.00;99.90
11934;DHT22;6026;48.784;9.198;2024-03-25T00:16:18;5.00;99.90
11934;DHT22;6026;48.784;9.198;2024-03-25T00:18:44;5.00;99.90
11934;DHT22;6026;48.784;9.198;2024-03-25T00:21:09;5.10;99.90
11934;DHT22;6026;48.784;9.198;2024-03-25T00:23:35;5.00;99.90
11934;DHT22;6026;48.784;9.198;2024-03-25T00:26:00;5.00;99.90
11934;DHT22;6026;48.784;9.198;2024-03-25T00:28:26;5.00;99.90
11934;DHT22;6026;48.784;9.198;2024-03-25T00:30:51;5.00;99.90
11934;DHT22;6026;48.784;9.198;2024-03-25T00:33:17;5.10;99.90
11934;DHT22;6026;48.784;9.198;2024-03-25T00:35:43;5.10;99.90
11934;DHT22;6026;48.784;9.198;2024-03-25T00:38:11;5.00;99.90
11934;DHT22;6026;48.784;9.198;2024-03-25T00:40:36;5.00;99.90
11934;DHT22;6026;48.784;9.198;2024-03-25T00:43:03;4.90;99.90
11934;DHT22;6026;48.784;9.198;2024-03-25T00:45:29;4.90;99.90
11934;DHT22;6026;48.784;9.198;2024-03-25T00:47:56;4.90;99.90
11934;DHT22;6026;48.784;9.198;2024-03-25T00:50:22;4.90;99.90
11934;DHT22;6026;48.784;9.198;2024-03-25T00:52:48;4.80;99.90
11934;DHT22;6026;48.784;9.198;2024-03-25T00:55:13;4.90;99.90
11934;DHT22;6026;48.784;9.198;2024-03-25T00:57:39;4.90;99.90
11934;DHT22;6026;48.784;9.198;2024-03-25T01:00:06;4.90;99.90
11934;DHT22;6026;48.784;9.198;2024-03-25T01:02:31;4.80;99.90
11934;DHT22;6026;48.784;9.198;2024-03-25T01:04:57;4.90;99.90
11934;DHT22;6026;48.784;9.198;2024-03-25T01:07:25;4.90;99.90
11934;DHT22;6026;48.784;9.198;2024-03-25T01:09:50;4.90;99.90
11934;DHT22;6026;48.784;9.198;2024-03-25T01:12:16;4.90;99.90
11934;DHT22;6026;48.784;9.198;2024-03-25T01:14:41;4.80;99.90
11934;DHT22;6026;48.784;9.198;2024-03-25T01:17:07;4.80;99.90
11934;DHT22;6026;48.784;9.198;2024-03-25T01:19:32;4.80;99.90
11934;DHT22;6026;48.784;9.198;2024-03-25T01:21:58;4.80;99.90
11934;DHT22;6026;48.784;9.198;2024-03-25T01:24:24;4.80;99.90
11934;DHT22;6026;48.784;9.198;2024-03-25T01:26:50;4.80;99.90
11934;DHT22;6026;48.784;9.198;2024-03-25T01:29:16;4.80;99.90
11934;DHT22;6026;48.784;9.198;2024-03-25T01:31:42;4.80;99.90
11934;DHT22;6026;48.784;9.198;2024-03-25T01:34:08;4.80;99.90
11934;DHT22;6026;48.784;9.198;2024-03-25T01:36:33;4.80;99.90
11934;DHT22;6026;48.784;9.198;2024-03-25T01:39:00;4.80;99.90
11934;DHT22;6026;48.784;9.198;2024-03-25T01:41:26;4.80;99.90
11934;DHT22;6026;48.784;9.198;2024-03-25T01:43:52;4.70;99.90
11934;DHT22;6026;48.784;9.198;2024-03-25T01:46:18;4.70;99.90
11934;DHT22;6026;48.784;9.198;2024-03-25T01:48:45;4.70;99.90
11934;DHT22;6026;48.784;9.198;2024-03-25T01:51:13;4.70;99.90
11934;DHT22;6026;48.784;9.198;2024-03-25T01:53:40;4.70;99.90
11934;DHT22;6026;48.784;9.198;2024-03-25T01:56:06;4.80;99.90
11934;DHT22;6026;48.784;9.198;2024-03-25T01:58:33;4.70;99.90
11934;DHT22;6026;48.784;9.198;2024-03-25T02:00:59;4.80;99.90
11934;DHT22;6026;48.784;9.198;2024-03-25T02:03:27;4.70;99.90
11934;DHT22;6026;48.784;9.198;2024-03-25T02:05:58;4.70;99.90
11934;DHT22;6026;48.784;9.198;2024-03-25T02:08:26;4.70;99.90
11934;DHT22;6026;48.784;9.198;2024-03-25T02:10:53;4.70;99.90
11934;DHT22;6026;48.784;9.198;2024-03-25T02:13:19;4.70;99.90
11934;DHT22;6026;48.784;9.198;2024-03-25T02:15:45;4.80;99.90
11934;DHT22;6026;48.784;9.198;2024-03-25T02:18:11;4.70;99.90
11934;DHT22;6026;48.784;9.198;2024-03-25T02:20:36;4.70;99.90
11934;DHT22;6026;48.784;9.198;2024-03-25T02:23:02;4.70;99.90
11934;DHT22;6026;48.784;9.198;2024-03-25T02:25:28;4.70;99.90
11934;DHT22;6026;48.784;9.198;2024-03-25T02:27:55;4.70;99.90
11934;DHT22;6026;48.784;9.198;2024-03-25T02:30:21;4.70;99.90
11934;DHT22;6026;48.784;9.198;2024-03-25T02:32:46;4.80;99.90
11934;DHT22;6026;48.784;9.198;2024-03-25T02:35:15;4.70;99.90
11934;DHT22;6026;48.784;9.198;2024-03-25T02:37:41;4.70;99.90
11934;DHT22;6026;48.784;9.198;2024-03-25T02:40:08;4.70;99.90
11934;DHT22;6026;48.784;9.198;2024-03-25T02:42:35;4.70;99.90
11934;DHT22;6026;48.784;9.198;2024-03-25T02:45:02;4.70;99.90
11934;DHT22;6026;48.784;9.198;2024-03-25T02:47:27;4.70;99.90
11934;DHT22;6026;48.784;9.198;2024-03-25T02:49:53;4.70;99.90
11934;DHT22;6026;48.784;9.198;2024-03-25T02:52:19;4.80;99.90
11934;DHT22;6026;48.784;9.198;2024-03-25T02:54:45;4.80;99.90
11934;DHT22;6026;48.784;9.198;2024-03-25T02:57:11;4.80;99.90
11934;DHT22;6026;48.784;9.198;2024-03-25T02:59:37;4.80;99.90
11934;DHT22;6026;48.784;9.198;2024-03-25T03:02:02;4.80;99.90
11934;DHT22;6026;48.784;9.198;2024-03-25T03:04:28;4.90;99.90
11934;DHT22;6026;48.784;9.198;2024-03-25T03:06:53;4.90;99.90
11934;DHT22;6026;48.784;9.198;2024-03-25T03:09:19;4.90;99.90
11934;DHT22;6026;48.784;9.198;2024-03-25T03:11:44;4.90;99.90
11934;DHT22;6026;48.784;9.198;2024-03-25T03:14:10;4.90;99.90
11934;DHT22;6026;48.784;9.198;2024-03-25T03:16:36;4.90;99.90
11934;DHT22;6026;48.784;9.198;2024-03-25T03:19:02;4.90;99.90
11934;DHT22;6026;48.784;9.198;2024-03-25T03:21:28;4.90;99.90
11934;DHT22;6026;48.784;9.198;2024-03-25T03:23:55;4.90;99.90
11934;DHT22;6026;48.784;9.198;2024-03-25T03:26:21;4.80;99.90
11934;DHT22;6026;48.784;9.198;2024-03-25T03:28:46;4.80;99.90
11934;DHT22;6026;48.784;9.198;2024-03-25T03:31:12;4.80;99.90
11934;DHT22;6026;48.784;9.198;2024-03-25T03:33:37;4.80;99.90
11934;DHT22;6026;48.784;9.198;2024-03-25T03:36:03;4.80;99.90
11934;DHT22;6026;48.784;9.198;2024-03-25T03:38:29;4.70;99.90
11934;DHT22;6026;48.784;9.198;2024-03-25T03:41:03;4.60;99.90
11934;DHT22;6026;48.784;9.198;2024-03-25T03:43:29;4.70;99.90
11934;DHT22;6026;48.784;9.198;2024-03-25T03:45:54;4.60;99.90
11934;DHT22;6026;48.784;9.198;2024-03-25T03:48:20;4.50;99.90
11934;DHT22;6026;48.784;9.198;2024-03-25T03:50:46;4.50;99.90
11934;DHT22;6026;48.784;9.198;2024-03-25T03:53:11;4.50;99.90
11934;DHT22;6026;48.784;9.198;2024-03-25T03:55:37;4.40;99.90
11934;DHT22;6026;48.784;9.198;2024-03-25T03:58:03;4.40;99.90
11934;DHT22;6026;48.784;9.198;2024-03-25T04:00:29;4.40;99.90
11934;DHT22;6026;48.784;9.198;2024-03-25T04:02:54;4.50;99.90
11934;DHT22;6026;48.784;9.198;2024-03-25T04:05:20;4.50;99.90
11934;DHT22;6026;48.784;9.198;2024-03-25T04:07:45;4.60;99.90
11934;DHT22;6026;48.784;9.198;2024-03-25T04:10:11;4.50;99.90
11934;DHT22;6026;48.784;9.198;2024-03-25T04:12:38;4.60;99.90
11934;DHT22;6026;48.784;9.198;2024-03-25T04:15:04;4.60;99.90
11934;DHT22;6026;48.784;9.198;2024-03-25T04:17:30;4.60;99.90
11934;DHT22;6026;48.784;9.198;2024-03-25T04:19:59;4.60;99.90
11934;DHT22;6026;48.784;9.198;2024-03-25T04:22:25;4.60;99.90
11934;DHT22;6026;48.784;9.198;2024-03-25T04:24:51;4.50;99.90
11934;DHT22;6026;48.784;9.198;2024-03-25T04:27:17;4.50;99.90
11934;DHT22;6026;48.784;9.198;2024-03-25T04:29:45;4.50;99.90
11934;DHT22;6026;48.784;9.198;2024-03-25T04:32:12;4.50;99.90
11934;DHT22;6026;48.784;9.198;2024-03-25T04:34:37;4.40;99.90
11934;DHT22;6026;48.784;9.198;2024-03-25T04:37:03;4.40;99.90
11934;DHT22;6026;48.784;9.198;2024-03-25T04:39:30;4.40;99.90
11934;DHT22;6026;48.784;9.198;2024-03-25T04:41:55;4.30;99.90
11934;DHT22;6026;48.784;9.198;2024-03-25T04:44:21;4.40;99.90
11934;DHT22;6026;48.784;9.198;2024-03-25T04:46:47;4.30;99.90
11934;DHT22;6026;48.784;9.198;2024-03-25T04:49:13;4.30;99.90
11934;DHT22;6026;48.784;9.198;2024-03-25T04:51:38;4.30;99.90
11934;DHT22;6026;48.784;9.198;2024-03-25T04:54:05;4.30;99.90
11934;DHT22;6026;48.784;9.198;2024-03-25T04:56:30;4.30;99.90
11934;DHT22;6026;48.784;9.198;2024-03-25T04:58:57;4.30;99.90
11934;DHT22;6026;48.784;9.198;2024-03-25T05:01:27;4.30;99.90
11934;DHT22;6026;48.784;9.198;2024-03-25T05:03:52;4.40;99.90
11934;DHT22;6026;48.784;9.198;2024-03-25T05:06:18;4.30;99.90
11934;DHT22;6026;48.784;9.198;2024-03-25T05:08:43;4.40;99.90
11934;DHT22;6026;48.784;9.198;2024-03-25T05:11:09;4.40;99.90
11934;DHT22;6026;48.784;9.198;2024-03-25T05:13:35;4.40;99.90
11934;DHT22;6026;48.784;9.198;2024-03-25T05:16:01;4.40;99.90
11934;DHT22;6026;48.784;9.198;2024-03-25T05:18:26;4.40;99.90
11934;DHT22;6026;48.784;9.198;2024-03-25T05:20:52;4.40;99.90
11934;DHT22;6026;48.784;9.198;2024-03-25T05:23:17;4.40;99.90
11934;DHT22;6026;48.784;9.198;2024-03-25T05:25:43;4.30;99.90
11934;DHT22;6026;48.784;9.198;2024-03-25T05:28:08;4.30;99.90
11934;DHT22;6026;48.784;9.198;2024-03-25T05:30:34;4.30;99.90
11934;DHT22;6026;48.784;9.198;2024-03-25T05:32:59;4.30;99.90
11934;DHT22;6026;48.784;9.198;2024-03-25T05:35:25;4.30;99.90
11934;DHT22;6026;48.784;9.198;2024-03-25T05:37:50;4.40;99.90
11934;DHT22;6026;48.784;9.198;2024-03-25T05:40:16;4.40;99.90
11934;DHT22;6026;48.784;9.198;2024-03-25T05:42:44;4.50;99.90
11934;DHT22;6026;48.784;9.198;2024-03-25T05:45:10;4.50;99.90
11934;DHT22;6026;48.784;9.198;2024-03-25T05:47:36;4.50;99.90
11934;DHT22;6026;48.784;9.198;2024-03-25T05:50:02;4.50;99.90
11934;DHT22;6026;48.784;9.198;2024-03-25T05:52:31;4.50;99.90
11934;DHT22;6026;48.784;9.198;2024-03-25T05:54:56;4.60;99.90
11934;DHT22;6026;48.784;9.198;2024-03-25T05:57:22;4.60;99.90
11934;DHT22;6026;48.784;9.198;2024-03-25T05:59:47;4.80;99.90
11934;DHT22;6026;48.784;9.198;2024-03-25T06:02:13;4.90;99.90
11934;DHT22;6026;48.784;9.198;2024-03-25T06:04:39;5.10;99.90
11934;DHT22;6026;48.784;9.198;2024-03-25T06:07:05;5.20;99.90
11934;DHT22;6026;48.784;9.198;2024-03-25T06:09:30;5.30;99.90
11934;DHT22;6026;48.784;9.198;2024-03-25T06:11:56;5.20;99.90
11934;DHT22;6026;48.784;9.198;2024-03-25T06:14:21;5.20;99.90
11934;DHT22;6026;48.784;9.198;2024-03-25T06:16:47;5.10;99.90
11934;DHT22;6026;48.784;9.198;2024-03-25T06:19:12;5.10;99.90
11934;DHT22;6026;48.784;9.198;2024-03-25T06:21:38;5.10;99.90
11934;DHT22;6026;48.784;9.198;2024-03-25T06:24:04;5.10;99.90
11934;DHT22;6026;48.784;9.198;2024-03-25T06:26:30;5.10;99.90
11934;DHT22;6026;48.784;9.198;2024-03-25T06:28:55;5.20;99.90
11934;DHT22;6026;48.784;9.198;2024-03-25T06:31:21;5.30;99.90
11934;DHT22;6026;48.784;9.198;2024-03-25T06:34:05;5.70;99.90
11934;DHT22;6026;48.784;9.198;2024-03-25T06:36:40;6.20;99.90
11934;DHT22;6026;48.784;9.198;2024-03-25T06:39:06;6.50;99.90
11934;DHT22;6026;48.784;9.198;2024-03-25T06:41:31;6.90;99.90
11934;DHT22;6026;48.784;9.198;2024-03-25T06:43:57;7.30;99.90
11934;DHT22;6026;48.784;9.198;2024-03-25T06:46:23;7.60;99.90
11934;DHT22;6026;48.784;9.198;2024-03-25T06:48:48;7.60;99.90
11934;DHT22;6026;48.784;9.198;2024-03-25T06:51:14;7.50;99.90
11934;DHT22;6026;48.784;9.198;2024-03-25T06:53:40;7.20;99.90
11934;DHT22;6026;48.784;9.198;2024-03-25T06:56:05;7.20;99.90
11934;DHT22;6026;48.784;9.198;2024-03-25T06:58:31;7.40;99.90
11934;DHT22;6026;48.784;9.198;2024-03-25T07:01:03;7.90;99.90
11934;DHT22;6026;48.784;9.198;2024-03-25T07:03:28;8.10;99.90
11934;DHT22;6026;48.784;9.198;2024-03-25T07:05:54;8.60;99.90
11934;DHT22;6026;48.784;9.198;2024-03-25T07:08:24;9.10;99.90
11934;DHT22;6026;48.784;9.198;2024-03-25T07:10:50;9.40;99.90
11934;DHT22;6026;48.784;9.198;2024-03-25T07:13:15;9.40;99.90
11934;DHT22;6026;48.784;9.198;2024-03-25T07:15:43;9.30;99.90
11934;DHT22;6026;48.784;9.198;2024-03-25T07:18:08;9.30;99.90
11934;DHT22;6026;48.784;9.198;2024-03-25T07:20:36;9.60;99.90
11934;DHT22;6026;48.784;9.198;2024-03-25T07:23:02;10.20;99.90
11934;DHT22;6026;48.784;9.198;2024-03-25T07:25:28;10.20;99.90
11934;DHT22;6026;48.784;9.198;2024-03-25T07:27:54;10.00;99.90
11934;DHT22;6026;48.784;9.198;2024-03-25T07:30:20;10.50;99.90
11934;DHT22;6026;48.784;9.198;2024-03-25T07:32:56;10.40;99.90
11934;DHT22;6026;48.784;9.198;2024-03-25T07:35:22;10.10;99.90
11934;DHT22;6026;48.784;9.198;2024-03-25T07:37:48;10.60;99.90
11934;DHT22;6026;48.784;9.198;2024-03-25T07:40:19;10.70;99.90
11934;DHT22;6026;48.784;9.198;2024-03-25T07:42:45;11.30;99.90
11934;DHT22;6026;48.784;9.198;2024-03-25T07:45:11;11.50;99.90
11934;DHT22;6026;48.784;9.198;2024-03-25T07:47:37;11.90;99.90
11934;DHT22;6026;48.784;9.198;2024-03-25T07:50:03;12.10;99.90
11934;DHT22;6026;48.784;9.198;2024-03-25T07:52:28;12.50;99.90
11934;DHT22;6026;48.784;9.198;2024-03-25T07:54:55;13.00;99.90
11934;DHT22;6026;48.784;9.198;2024-03-25T07:57:21;13.10;99.90
11934;DHT22;6026;48.784;9.198;2024-03-25T07:59:47;12.90;99.90
11934;DHT22;6026;48.784;9.198;2024-03-25T08:02:13;13.40;99.90
11934;DHT22;6026;48.784;9.198;2024-03-25T08:04:38;13.40;99.90
11934;DHT22;6026;48.784;9.198;2024-03-25T08:07:04;13.70;99.90
11934;DHT22;6026;48.784;9.198;2024-03-25T08:09:30;13.80;99.90
11934;DHT22;6026;48.784;9.198;2024-03-25T08:11:56;14.00;99.90
11934;DHT22;6026;48.784;9.198;2024-03-25T08:14:21;14.10;99.90
11934;DHT22;6026;48.784;9.198;2024-03-25T08:16:47;14.20;99.90
11934;DHT22;6026;48.784;9.198;2024-03-25T08:19:13;14.50;99.90
11934;DHT22;6026;48.784;9.198;2024-03-25T08:21:38;14.90;99.90
11934;DHT22;6026;48.784;9.198;2024-03-25T08:24:04;15.00;99.90
11934;DHT22;6026;48.784;9.198;2024-03-25T08:26:30;14.90;99.90
11934;DHT22;6026;48.784;9.198;2024-03-25T08:28:55;14.40;99.90
11934;DHT22;6026;48.784;9.198;2024-03-25T08:31:21;14.00;99.90
11934;DHT22;6026;48.784;9.198;2024-03-25T08:33:46;13.40;99.90
11934;DHT22;6026;48.784;9.198;2024-03-25T08:36:12;13.20;99.90
11934;DHT22;6026;48.784;9.198;2024-03-25T08:38:38;13.00;99.90
11934;DHT22;6026;48.784;9.198;2024-03-25T08:41:03;12.90;99.90
11934;DHT22;6026;48.784;9.198;2024-03-25T08:43:29;12.90;99.90
11934;DHT22;6026;48.784;9.198;2024-03-25T08:45:55;13.00;99.90
11934;DHT22;6026;48.784;9.198;2024-03-25T08:48:20;13.10;99.90
11934;DHT22;6026;48.784;9.198;2024-03-25T08:50:46;13.00;99.90
11934;DHT22;6026;48.784;9.198;2024-03-25T08:53:11;13.00;99.90
11934;DHT22;6026;48.784;9.198;2024-03-25T08:55:37;13.20;99.90
11934;DHT22;6026;48.784;9.198;2024-03-25T08:58:02;13.90;99.90
11934;DHT22;6026;48.784;9.198;2024-03-25T09:00:28;14.10;99.90
11934;DHT22;6026;48.784;9.198;2024-03-25T09:02:54;14.10;99.90
11934;DHT22;6026;48.784;9.198;2024-03-25T09:05:21;13.90;99.90
11934;DHT22;6026;48.784;9.198;2024-03-25T09:07:49;13.80;99.90
11934;DHT22;6026;48.784;9.198;2024-03-25T09:10:17;13.90;99.90
11934;DHT22;6026;48.784;9.198;2024-03-25T09:13:01;14.20;99.90
11934;DHT22;6026;48.784;9.198;2024-03-25T09:15:28;14.30;99.90
11934;DHT22;6026;48.784;9.198;2024-03-25T09:17:54;14.60;99.90
11934;DHT22;6026;48.784;9.198;2024-03-25T09:20:20;14.60;99.90
11934;DHT22;6026;48.784;9.198;2024-03-25T09:22:46;14.50;99.90
11934;DHT22;6026;48.784;9.198;2024-03-25T09:25:15;14.30;99.90
11934;DHT22;6026;48.784;9.198;2024-03-25T09:27:41;14.30;99.90
11934;DHT22;6026;48.784;9.198;2024-03-25T09:30:07;14.40;99.90
11934;DHT22;6026;48.784;9.198;2024-03-25T09:32:35;14.50;99.90
11934;DHT22;6026;48.784;9.198;2024-03-25T09:35:01;14.70;99.90
11934;DHT22;6026;48.784;9.198;2024-03-25T09:37:26;14.80;99.90
11934;DHT22;6026;48.784;9.198;2024-03-25T09:39:52;15.00;99.90
11934;DHT22;6026;48.784;9.198;2024-03-25T09:42:47;15.60;99.90
11934;DHT22;6026;48.784;9.198;2024-03-25T09:45:16;15.70;99.90
11934;DHT22;6026;48.784;9.198;2024-03-25T09:47:47;16.00;99.90
11934;DHT22;6026;48.784;9.198;2024-03-25T09:50:14;16.10;99.90
11934;DHT22;6026;48.784;9.198;2024-03-25T09:52:47;16.10;99.90
11934;DHT22;6026;48.784;9.198;2024-03-25T09:55:13;16.70;99.90
11934;DHT22;6026;48.784;9.198;2024-03-25T09:57:39;16.70;99.90
11934;DHT22;6026;48.784;9.198;2024-03-25T10:00:08;17.00;99.90
11934;DHT22;6026;48.784;9.198;2024-03-25T10:02:38;17.10;99.90
11934;DHT22;6026;48.784;9.198;2024-03-25T10:05:05;17.30;99.90
11934;DHT22;6026;48.784;9.198;2024-03-25T10:07:31;17.30;99.90
11934;DHT22;6026;48.784;9.198;2024-03-25T10:09:56;17.30;99.90
11934;DHT22;6026;48.784;9.198;2024-03-25T10:12:24;17.50;99.90
11934;DHT22;6026;48.784;9.198;2024-03-25T10:14:49;17.60;99.70
11934;DHT22;6026;48.784;9.198;2024-03-25T10:17:15;17.40;99.80
11934;DHT22;6026;48.784;9.198;2024-03-25T10:19:41;17.20;99.90
11934;DHT22;6026;48.784;9.198;2024-03-25T10:22:08;17.10;99.30
11934;DHT22;6026;48.784;9.198;2024-03-25T10:24:41;16.90;99.80
11934;DHT22;6026;48.784;9.198;2024-03-25T10:27:21;16.70;99.90
11934;DHT22;6026;48.784;9.198;2024-03-25T10:29:56;16.70;99.90
11934;DHT22;6026;48.784;9.198;2024-03-25T10:32:22;16.90;99.90
11934;DHT22;6026;48.784;9.198;2024-03-25T10:34:51;17.10;99.60
11934;DHT22;6026;48.784;9.198;2024-03-25T10:37:17;17.30;98.80
11934;DHT22;6026;48.784;9.198;2024-03-25T10:39:49;17.30;99.10
11934;DHT22;6026;48.784;9.198;2024-03-25T10:42:21;17.40;98.90
11934;DHT22;6026;48.784;9.198;2024-03-25T10:44:48;17.30;98.50
11934;DHT22;6026;48.784;9.198;2024-03-25T10:47:23;15.80;98.90
11934;DHT22;6026;48.784;9.198;2024-03-25T10:49:59;14.10;99.50
11934;DHT22;6026;48.784;9.198;2024-03-25T10:52:27;14.10;99.90
11934;DHT22;6026;48.784;9.198;2024-03-25T10:54:55;12.90;99.90
11934;DHT22;6026;48.784;9.198;2024-03-25T10:57:21;12.30;99.90
11934;DHT22;6026;48.784;9.198;2024-03-25T10:59:49;12.60;99.90
11934;DHT22;6026;48.784;9.198;2024-03-25T11:02:15;12.40;99.90
11934;DHT22;6026;48.784;9.198;2024-03-25T11:04:43;11.30;99.90
11934;DHT22;6026;48.784;9.198;2024-03-25T11:07:14;11.30;99.90
11934;DHT22;6026;48.784;9.198;2024-03-25T11:09:41;11.20;99.90
11934;DHT22;6026;48.784;9.198;2024-03-25T11:12:10;11.20;99.90
11934;DHT22;6026;48.784;9.198;2024-03-25T11:14:37;11.50;99.90
11934;DHT22;6026;48.784;9.198;2024-03-25T11:17:02;11.80;99.90
11934;DHT22;6026;48.784;9.198;2024-03-25T11:19:31;11.10;99.90
11934;DHT22;6026;48.784;9.198;2024-03-25T11:22:10;11.30;99.90
11934;DHT22;6026;48.784;9.198;2024-03-25T11:24:37;11.10;99.90
11934;DHT22;6026;48.784;9.198;2024-03-25T11:27:06;10.80;99.90
11934;DHT22;6026;48.784;9.198;2024-03-25T11:29:32;11.20;99.90
11934;DHT22;6026;48.784;9.198;2024-03-25T11:32:02;11.50;99.90
11934;DHT22;6026;48.784;9.198;2024-03-25T11:34:29;11.80;99.90
11934;DHT22;6026;48.784;9.198;2024-03-25T11:36:54;11.90;99.90
11934;DHT22;6026;48.784;9.198;2024-03-25T11:39:22;11.40;99.90
11934;DHT22;6026;48.784;9.198;2024-03-25T11:41:47;11.50;99.90
11934;DHT22;6026;48.784;9.198;2024-03-25T11:44:13;11.60;99.90
11934;DHT22;6026;48.784;9.198;2024-03-25T11:46:40;12.10;99.90
11934;DHT22;6026;48.784;9.198;2024-03-25T11:49:06;12.60;99.90
11934;DHT22;6026;48.784;9.198;2024-03-25T11:51:36;12.90;99.90
11934;DHT22;6026;48.784;9.198;2024-03-25T11:54:04;13.20;99.90
11934;DHT22;6026;48.784;9.198;2024-03-25T11:56:33;13.40;99.90
11934;DHT22;6026;48.784;9.198;2024-03-25T11:59:02;13.40;99.90
11934;DHT22;6026;48.784;9.198;2024-03-25T12:01:31;13.40;99.90
11934;DHT22;6026;48.784;9.198;2024-03-25T12:03:56;13.50;99.90
11934;DHT22;6026;48.784;9.198;2024-03-25T12:06:22;13.40;99.90
11934;DHT22;6026;48.784;9.198;2024-03-25T12:08:48;13.50;99.90
11934;DHT22;6026;48.784;9.198;2024-03-25T12:11:32;14.00;99.90
11934;DHT22;6026;48.784;9.198;2024-03-25T12:13:59;14.60;99.90
11934;DHT22;6026;48.784;9.198;2024-03-25T12:16:25;14.90;99.90
11934;DHT22;6026;48.784;9.198;2024-03-25T12:18:51;15.30;99.90
11934;DHT22;6026;48.784;9.198;2024-03-25T12:21:17;15.70;99.90
11934;DHT22;6026;48.784;9.198;2024-03-25T12:23:43;15.90;99.80
11934;DHT22;6026;48.784;9.198;2024-03-25T12:26:09;15.90;99.00
11934;DHT22;6026;48.784;9.198;2024-03-25T12:28:34;15.90;99.40
11934;DHT22;6026;48.784;9.198;2024-03-25T12:31:07;16.20;99.90
11934;DHT22;6026;48.784;9.198;2024-03-25T12:33:46;15.30;98.70
11934;DHT22;6026;48.784;9.198;2024-03-25T12:36:12;15.60;99.20
11934;DHT22;6026;48.784;9.198;2024-03-25T12:38:38;16.10;99.30
11934;DHT22;6026;48.784;9.198;2024-03-25T12:41:05;16.10;98.60
11934;DHT22;6026;48.784;9.198;2024-03-25T12:43:32;15.80;99.40
11934;DHT22;6026;48.784;9.198;2024-03-25T12:45:58;16.10;99.90
11934;DHT22;6026;48.784;9.198;2024-03-25T12:48:24;16.30;98.90
11934;DHT22;6026;48.784;9.198;2024-03-25T12:50:50;16.60;99.10
11934;DHT22;6026;48.784;9.198;2024-03-25T12:53:17;16.40;98.70
11934;DHT22;6026;48.784;9.198;2024-03-25T12:55:44;16.30;98.10
11934;DHT22;6026;48.784;9.198;2024-03-25T12:58:10;16.40;98.40
11934;DHT22;6026;48.784;9.198;2024-03-25T13:00:36;16.40;96.90
11934;DHT22;6026;48.784;9.198;2024-03-25T13:03:02;15.30;97.10
11934;DHT22;6026;48.784;9.198;2024-03-25T13:05:28;15.00;96.10
11934;DHT22;6026;48.784;9.198;2024-03-25T13:07:54;15.60;96.40
11934;DHT22;6026;48.784;9.198;2024-03-25T13:10:20;15.50;96.80
11934;DHT22;6026;48.784;9.198;2024-03-25T13:12:45;15.70;95.60
11934;DHT22;6026;48.784;9.198;2024-03-25T13:15:11;15.80;96.30
11934;DHT22;6026;48.784;9.198;2024-03-25T13:17:37;16.30;96.80
11934;DHT22;6026;48.784;9.198;2024-03-25T13:20:02;16.60;97.40
11934;DHT22;6026;48.784;9.198;2024-03-25T13:22:29;16.80;97.50
11934;DHT22;6026;48.784;9.198;2024-03-25T13:24:57;17.00;97.60
11934;DHT22;6026;48.784;9.198;2024-03-25T13:27:22;17.00;97.80
11934;DHT22;6026;48.784;9.198;2024-03-25T13:29:48;16.90;97.50
11934;DHT22;6026;48.784;9.198;2024-03-25T13:32:13;17.10;97.50
11934;DHT22;6026;48.784;9.198;2024-03-25T13:34:39;17.20;96.90
11934;DHT22;6026;48.784;9.198;2024-03-25T13:37:05;17.40;97.80
11934;DHT22;6026;48.784;9.198;2024-03-25T13:39:30;17.50;96.70
11934;DHT22;6026;48.784;9.198;2024-03-25T13:41:56;17.50;96.10
11934;DHT22;6026;48.784;9.198;2024-03-25T13:44:21;17.50;96.10
11934;DHT22;6026;48.784;9.198;2024-03-25T13:46:47;17.50;95.50
11934;DHT22;6026;48.784;9.198;2024-03-25T13:49:13;17.60;95.70
11934;DHT22;6026;48.784;9.198;2024-03-25T13:51:40;17.70;95.60
11934;DHT22;6026;48.784;9.198;2024-03-25T13:54:06;17.80;95.50
11934;DHT22;6026;48.784;9.198;2024-03-25T13:56:32;17.50;94.20
11934;DHT22;6026;48.784;9.198;2024-03-25T13:58:57;17.10;94.60
11934;DHT22;6026;48.784;9.198;2024-03-25T14:01:23;16.70;95.20
11934;DHT22;6026;48.784;9.198;2024-03-25T14:03:50;17.00;95.60
11934;DHT22;6026;48.784;9.198;2024-03-25T14:06:15;17.20;95.30
11934;DHT22;6026;48.784;9.198;2024-03-25T14:08:41;17.40;94.90
11934;DHT22;6026;48.784;9.198;2024-03-25T14:11:08;17.40;94.80
11934;DHT22;6026;48.784;9.198;2024-03-25T14:13:33;17.30;96.00
11934;DHT22;6026;48.784;9.198;2024-03-25T14:15:59;17.00;95.20
11934;DHT22;6026;48.784;9.198;2024-03-25T14:18:25;17.20;95.50
11934;DHT22;6026;48.784;9.198;2024-03-25T14:20:52;17.00;95.20
11934;DHT22;6026;48.784;9.198;2024-03-25T14:23:17;17.20;96.20
11934;DHT22;6026;48.784;9.198;2024-03-25T14:25:43;17.20;95.80
11934;DHT22;6026;48.784;9.198;2024-03-25T14:28:08;17.20;96.00
11934;DHT22;6026;48.784;9.198;2024-03-25T14:30:34;17.30;95.70
11934;DHT22;6026;48.784;9.198;2024-03-25T14:33:00;15.90;94.30
11934;DHT22;6026;48.784;9.198;2024-03-25T14:35:25;15.10;94.90
11934;DHT22;6026;48.784;9.198;2024-03-25T14:37:51;15.60;94.50
11934;DHT22;6026;48.784;9.198;2024-03-25T14:40:17;15.70;95.10
11934;DHT22;6026;48.784;9.198;2024-03-25T14:42:43;15.10;94.90
11934;DHT22;6026;48.784;9.198;2024-03-25T14:45:08;14.90;95.10
11934;DHT22;6026;48.784;9.198;2024-03-25T14:47:34;14.80;94.90
11934;DHT22;6026;48.784;9.198;2024-03-25T14:50:00;13.80;95.20
11934;DHT22;6026;48.784;9.198;2024-03-25T14:52:25;14.20;95.70
11934;DHT22;6026;48.784;9.198;2024-03-25T14:54:51;13.80;96.20
11934;DHT22;6026;48.784;9.198;2024-03-25T14:57:16;13.90;96.40
11934;DHT22;6026;48.784;9.198;2024-03-25T14:59:42;14.00;96.70
11934;DHT22;6026;48.784;9.198;2024-03-25T15:02:08;14.10;95.80
11934;DHT22;6026;48.784;9.198;2024-03-25T15:04:38;14.10;96.50
11934;DHT22;6026;48.784;9.198;2024-03-25T15:07:09;14.00;95.80
11934;DHT22;6026;48.784;9.198;2024-03-25T15:09:35;14.20;95.80
11934;DHT22;6026;48.784;9.198;2024-03-25T15:12:00;14.10;96.20
11934;DHT22;6026;48.784;9.198;2024-03-25T15:14:28;14.50;95.90
11934;DHT22;6026;48.784;9.198;2024-03-25T15:16:59;14.20;96.50
11934;DHT22;6026;48.784;9.198;2024-03-25T15:19:25;14.40;96.00
11934;DHT22;6026;48.784;9.198;2024-03-25T15:21:51;13.90;95.60
11934;DHT22;6026;48.784;9.198;2024-03-25T15:24:16;13.40;96.00
11934;DHT22;6026;48.784;9.198;2024-03-25T15:26:42;13.60;96.40
11934;DHT22;6026;48.784;9.198;2024-03-25T15:29:07;13.60;95.90
11934;DHT22;6026;48.784;9.198;2024-03-25T15:31:33;13.90;96.40
11934;DHT22;6026;48.784;9.198;2024-03-25T15:33:59;13.60;95.90
11934;DHT22;6026;48.784;9.198;2024-03-25T15:36:25;14.00;96.10
11934;DHT22;6026;48.784;9.198;2024-03-25T15:38:54;13.70;95.50
11934;DHT22;6026;48.784;9.198;2024-03-25T15:41:20;13.70;95.60
11934;DHT22;6026;48.784;9.198;2024-03-25T15:43:45;13.70;95.30
11934;DHT22;6026;48.784;9.198;2024-03-25T15:46:11;13.80;95.50
11934;DHT22;6026;48.784;9.198;2024-03-25T15:48:36;13.80;95.70